Time;durP1;ratioP1;P1;durP2;ratioP2;P2;SDS_P1;SDS_P2;PMS_P1;PMS_P2;Temp;Humidity;BMP_temperature;BMP_pressure;BME280_temperature;BME280_humidity;BME280_pressure;Samples;Min_cycle;Max_cycle;Signal;HPM_P1;HPM_P2
2023/01/04 00:02:44;;;;;;;10.60;9.33;;;3.80;99.90;5.00;98100.00;;;;5048738;28;20240;-87
2023/01/04 00:05:33;;;;;;;14.43;8.87;;;5.30;99.90;5.00;98102.00;;;;5049671;28;20270;-87
2023/01/04 00:08:24;;;;;;;13.23;9.20;;;3.80;99.90;5.00;98105.00;;;;5051488;28;20199;-87
2023/01/04 00:11:16;;;;;;;13.90;8.43;;;3.80;99.90;5.10;98091.00;;;;5053593;28;20570;-87
2023/01/04 00:14:05;;;;;;;16.50;8.63;;;3.80;99.90;5.10;98087.00;;;;5041556;28;20204;-86
2023/01/04 00:16:54;;;;;;;11.03;8.33;;;3.80;99.90;5.20;98090.00;;;;5050929;28;20509;-87
2023/01/04 00:19:43;;;;;;;13.00;8.23;;;3.90;99.90;5.20;98091.00;;;;5052341;28;20254;-87
2023/01/04 00:22:34;;;;;;;12.30;9.13;;;3.90;99.90;5.30;98092.00;;;;5052421;28;20227;-87
2023/01/04 00:25:25;;;;;;;14.80;8.20;;;5.70;99.90;5.30;98097.00;;;;5052571;28;20228;-86
2023/01/04 00:28:13;;;;;;;13.03;7.90;;;3.90;99.90;5.10;98099.00;;;;5051207;28;20672;-88
2023/01/04 00:31:04;;;;;;;12.17;8.20;;;3.90;99.90;5.10;98091.00;;;;5053364;28;20208;-88
2023/01/04 00:33:54;;;;;;;11.23;7.67;;;3.90;99.90;5.10;98097.00;;;;5054069;28;20193;-88
2023/01/04 00:36:44;;;;;;;13.17;9.30;;;3.90;99.90;5.30;98093.00;;;;5052760;28;20225;-88
2023/01/04 00:39:33;;;;;;;11.93;8.07;;;3.90;99.90;5.50;98103.00;;;;5050504;28;20200;-88
2023/01/04 00:42:23;;;;;;;11.83;7.73;;;4.00;99.90;5.50;98097.00;;;;5051868;28;20223;-87
2023/01/04 00:45:12;;;;;;;10.97;7.93;;;4.00;99.90;5.60;98095.00;;;;5041518;28;20236;-87
2023/01/04 00:48:01;;;;;;;13.93;8.50;;;4.10;99.90;5.40;98084.00;;;;5047716;28;20228;-88
2023/01/04 00:50:51;;;;;;;10.23;7.20;;;4.10;99.90;5.10;98083.00;;;;5048204;28;20208;-89
2023/01/04 00:53:43;;;;;;;11.93;7.77;;;4.00;99.90;4.90;98085.00;;;;5053171;28;20205;-88
2023/01/04 00:56:33;;;;;;;12.60;7.43;;;4.00;99.90;5.20;98098.00;;;;5033899;28;20310;-89
2023/01/04 00:59:24;;;;;;;9.97;7.93;;;4.00;99.90;5.30;98097.00;;;;5032465;28;20210;-88
2023/01/04 01:02:12;;;;;;;15.80;8.93;;;5.50;99.90;5.30;98092.00;;;;5046175;28;20224;-88
2023/01/04 01:05:01;;;;;;;13.23;9.23;;;4.00;99.90;5.50;98109.00;;;;5046960;28;20251;-87
2023/01/04 01:07:50;;;;;;;15.80;8.50;;;4.10;99.90;5.60;98104.00;;;;5045395;28;20220;-87
2023/01/04 01:10:39;;;;;;;12.63;7.00;;;4.10;99.90;5.70;98102.00;;;;5052243;28;20217;-88
2023/01/04 01:13:28;;;;;;;10.27;7.90;;;4.20;99.90;5.70;98103.00;;;;5036758;28;20193;-87
2023/01/04 01:16:23;;;;;;;12.10;7.70;;;4.20;99.90;5.70;98099.00;;;;5041210;28;20229;-88
2023/01/04 01:19:27;;;;;;;9.60;7.60;;;4.20;99.90;5.80;98101.00;;;;5032449;28;20316;-88
2023/01/04 01:22:16;;;;;;;10.83;7.67;;;4.20;99.90;5.60;98091.00;;;;5039856;28;20200;-88
2023/01/04 01:25:06;;;;;;;10.13;7.53;;;4.30;99.90;5.20;98090.00;;;;5037864;28;20201;-88
2023/01/04 01:27:55;;;;;;;11.37;7.20;;;4.20;99.90;5.20;98094.00;;;;5050362;28;20606;-89
2023/01/04 01:30:44;;;;;;;9.93;7.80;;;4.10;99.90;5.40;98100.00;;;;5054140;28;20200;-88
2023/01/04 01:33:36;;;;;;;12.47;8.43;;;4.10;99.90;5.60;98097.00;;;;5032426;28;20193;-88
2023/01/04 01:36:27;;;;;;;9.47;7.47;;;4.20;99.90;5.70;98105.00;;;;5056638;28;20220;-88
2023/01/04 01:39:15;;;;;;;10.53;7.97;;;4.20;99.90;5.40;98097.00;;;;5053572;28;20226;-89
2023/01/04 01:42:04;;;;;;;11.23;7.63;;;4.20;99.90;5.20;98104.00;;;;5050376;28;20195;-88
2023/01/04 01:45:00;;;;;;;15.33;8.37;;;5.10;99.90;5.30;98096.00;;;;5043773;28;20200;-88
2023/01/04 01:47:50;;;;;;;11.33;8.47;;;4.20;99.90;5.40;98104.00;;;;5049617;28;20220;-89
2023/01/04 01:50:45;;;;;;;12.03;7.97;;;4.20;99.90;5.30;98095.00;;;;5050364;28;20733;-88
2023/01/04 01:53:39;;;;;;;16.60;9.37;;;4.20;99.90;5.10;98083.00;;;;5051103;28;20208;-88
2023/01/04 01:56:32;;;;;;;10.63;8.93;;;4.20;99.90;5.30;98082.00;;;;5051787;28;20301;-90
2023/01/04 01:59:22;;;;;;;11.03;7.90;;;4.10;99.90;5.60;98082.00;;;;5029187;28;20201;-88
2023/01/04 02:02:11;;;;;;;10.53;8.20;;;4.20;99.90;5.50;98082.00;;;;5047664;28;20220;-88
2023/01/04 02:05:02;;;;;;;10.60;7.60;;;4.20;99.90;5.60;98079.00;;;;5050508;28;20192;-88
2023/01/04 02:07:54;;;;;;;16.67;8.17;;;5.60;99.90;5.90;98070.00;;;;5043908;28;20220;-88
2023/01/04 02:10:43;;;;;;;10.97;8.93;;;4.30;99.90;5.90;98077.00;;;;5049916;28;20223;-89
2023/01/04 02:16:57;;;;;;;14.70;8.27;;;4.40;99.90;5.70;98077.00;;;;5048815;28;20235;-87
2023/01/04 02:20:28;;;;;;;9.23;6.90;;;4.40;99.90;5.80;98076.00;;;;5049380;28;20273;-88
2023/01/04 02:24:08;;;;;;;11.73;7.77;;;4.40;99.90;5.80;98069.00;;;;5050255;28;20275;-89
2023/01/04 02:27:41;;;;;;;15.33;7.23;;;4.40;99.90;6.00;98063.00;;;;5048274;28;20314;-89
2023/01/04 02:31:09;;;;;;;9.07;6.73;;;5.70;99.90;6.10;98070.00;;;;5037729;28;20197;-88
2023/01/04 02:34:07;;;;;;;7.77;5.97;;;4.50;99.90;6.10;98077.00;;;;5050861;28;20197;-88
2023/01/04 02:37:03;;;;;;;9.87;6.93;;;4.50;99.90;5.80;98078.00;;;;5049942;28;20236;-88
2023/01/04 02:40:06;;;;;;;11.30;6.53;;;4.50;99.90;5.90;98075.00;;;;5048487;28;20208;-88
2023/01/04 02:46:17;;;;;;;7.93;6.40;;;4.50;99.90;5.80;98073.00;;;;5048494;28;20797;-89
2023/01/04 02:52:13;;;;;;;9.40;7.83;;;4.50;99.90;6.00;98076.00;;;;5035041;28;20203;-88
2023/01/04 02:55:06;;;;;;;9.60;6.77;;;4.50;99.90;5.90;98070.00;;;;5050441;28;20201;-89
2023/01/04 02:58:02;;;;;;;10.03;6.73;;;4.50;99.90;6.00;98080.00;;;;5031127;28;20686;-88
2023/01/04 03:07:46;;;;;;;9.90;7.37;;;4.60;99.90;5.90;98070.00;;;;5040594;28;20221;-89
2023/01/04 03:10:41;;;;;;;8.50;7.23;;;4.60;99.90;5.80;98078.00;;;;5047835;28;20192;-88
2023/01/04 03:13:36;;;;;;;9.47;7.23;;;4.60;99.90;6.00;98077.00;;;;5045363;28;20204;-88
2023/01/04 03:16:26;;;;;;;14.30;7.30;;;4.60;99.90;6.00;98082.00;;;;5048987;28;20232;-88
2023/01/04 03:19:50;;;;;;;11.93;8.50;;;6.20;99.90;5.80;98070.00;;;;5048766;28;20204;-88
2023/01/04 03:35:29;;;;;;;8.83;5.87;;;4.50;99.90;6.00;98071.00;;;;5048927;28;20342;-87
2023/01/04 03:48:30;;;;;;;8.33;7.40;;;4.60;99.90;6.10;98071.00;;;;5040509;28;20243;-88
2023/01/04 03:51:26;;;;;;;6.47;5.77;;;4.60;99.90;6.10;98072.00;;;;5040665;28;20745;-88
2023/01/04 03:54:21;;;;;;;7.93;5.30;;;4.60;99.90;6.00;98065.00;;;;5051741;28;20752;-88
2023/01/04 03:57:11;;;;;;;8.93;6.90;;;4.60;99.90;6.10;98073.00;;;;5051176;28;20602;-87
2023/01/04 04:00:08;;;;;;;9.20;6.43;;;4.70;99.90;6.00;98067.00;;;;5042991;28;20213;-88
2023/01/04 04:03:06;;;;;;;8.23;6.07;;;4.70;99.90;5.80;98062.00;;;;5052215;28;20212;-88
2023/01/04 04:09:03;;;;;;;8.87;6.30;;;6.00;99.90;5.90;98061.00;;;;5051383;28;20203;-87
2023/01/04 04:11:51;;;;;;;8.80;6.23;;;4.60;99.90;5.90;98061.00;;;;5049741;28;20672;-88
2023/01/04 04:14:40;;;;;;;5.87;5.27;;;4.60;99.90;5.90;98056.00;;;;5050976;28;20259;-88
2023/01/04 04:17:29;;;;;;;7.50;6.23;;;4.60;99.90;5.90;98049.00;;;;5042871;28;20232;-87
2023/01/04 04:20:18;;;;;;;8.60;6.07;;;4.60;99.90;5.90;98054.00;;;;5050133;28;20573;-88
2023/01/04 04:23:07;;;;;;;8.27;5.73;;;5.00;99.90;5.70;98048.00;;;;5051252;28;20212;-87
2023/01/04 04:25:57;;;;;;;8.50;6.47;;;4.60;99.90;6.00;98056.00;;;;5051030;28;20192;-86
2023/01/04 04:28:45;;;;;;;8.90;6.30;;;4.50;99.90;6.00;98056.00;;;;5051198;28;20646;-87
2023/01/04 04:31:34;;;;;;;8.23;5.97;;;4.60;99.90;5.80;98056.00;;;;5051429;28;20212;-87
2023/01/04 04:34:23;;;;;;;7.97;5.73;;;4.60;99.90;5.80;98053.00;;;;5051743;28;20215;-87
2023/01/04 04:37:12;;;;;;;8.13;6.13;;;4.50;99.90;5.80;98056.00;;;;5055554;28;20232;-88
2023/01/04 04:40:01;;;;;;;6.90;5.10;;;4.90;99.90;5.90;98057.00;;;;5051725;28;20236;-86
2023/01/04 04:42:50;;;;;;;8.63;4.80;;;4.60;99.90;5.90;98060.00;;;;5051194;28;20200;-87
2023/01/04 04:45:39;;;;;;;7.50;5.53;;;4.60;99.90;5.90;98051.00;;;;5051237;28;20197;-87
2023/01/04 04:48:27;;;;;;;9.00;6.07;;;4.60;99.90;5.70;98061.00;;;;5050644;28;20240;-87
2023/01/04 04:51:17;;;;;;;5.83;5.23;;;4.60;99.90;5.80;98048.00;;;;5051560;28;20660;-88
2023/01/04 04:54:06;;;;;;;8.53;6.27;;;4.60;99.90;6.00;98061.00;;;;5051303;28;20193;-87
2023/01/04 04:56:55;;;;;;;7.20;5.63;;;4.60;99.90;6.10;98063.00;;;;5049458;28;20283;-88
2023/01/04 04:59:45;;;;;;;7.87;5.63;;;4.60;99.90;6.10;98070.00;;;;5050035;28;20200;-87
2023/01/04 05:02:34;;;;;;;6.57;4.87;;;4.60;99.90;6.10;98062.00;;;;5046771;28;20216;-87
2023/01/04 05:05:23;;;;;;;7.33;5.73;;;4.60;99.90;6.00;98052.00;;;;5050430;28;20711;-88
2023/01/04 05:08:12;;;;;;;7.47;5.90;;;4.60;99.90;6.10;98062.00;;;;5047234;28;20225;-87
2023/01/04 05:11:05;;;;;;;6.73;4.97;;;4.60;99.90;6.00;98051.00;;;;5050145;28;20197;-87
2023/01/04 05:13:52;;;;;;;7.10;5.43;;;5.50;99.90;5.90;98046.00;;;;5048522;28;20258;-87
2023/01/04 05:16:43;;;;;;;7.70;5.83;;;4.60;99.90;6.00;98054.00;;;;5050803;28;20648;-86
2023/01/04 05:19:32;;;;;;;11.83;8.67;;;4.60;99.90;6.10;98053.00;;;;5051230;28;20209;-87
2023/01/04 05:22:21;;;;;;;8.30;6.03;;;4.60;99.90;6.10;98048.00;;;;5051537;28;20204;-87
2023/01/04 05:25:11;;;;;;;10.23;5.77;;;4.60;99.90;6.10;98045.00;;;;5051037;28;20193;-87
2023/01/04 05:27:59;;;;;;;6.50;5.63;;;4.60;99.90;6.00;98057.00;;;;5039101;28;20228;-87
2023/01/04 05:30:52;;;;;;;5.83;4.90;;;4.60;99.90;5.60;98054.00;;;;5051046;28;20216;-87
2023/01/04 05:33:42;;;;;;;7.27;6.00;;;4.60;99.90;5.90;98051.00;;;;5049802;28;20687;-87
2023/01/04 05:36:31;;;;;;;8.60;6.77;;;4.60;99.90;6.10;98061.00;;;;5043454;28;20235;-87
2023/01/04 05:39:20;;;;;;;7.73;6.77;;;4.90;99.90;6.00;98057.00;;;;5050960;28;20268;-88
2023/01/04 05:42:27;;;;;;;11.50;6.57;;;4.60;99.90;5.70;98062.00;;;;5032318;28;20200;-87
2023/01/04 05:45:18;;;;;;;11.20;8.10;;;4.60;99.90;5.90;98047.00;;;;5039398;28;20196;-87
2023/01/04 05:48:07;;;;;;;13.93;9.50;;;4.60;99.90;6.10;98061.00;;;;5051828;28;20220;-87
2023/01/04 05:50:57;;;;;;;9.80;8.47;;;4.60;99.90;6.20;98057.00;;;;5051829;28;20193;-87
2023/01/04 05:53:46;;;;;;;12.10;8.40;;;4.70;99.90;6.30;98067.00;;;;5031793;28;20204;-86
2023/01/04 05:56:35;;;;;;;12.17;8.67;;;4.70;99.90;6.30;98065.00;;;;5036154;28;20633;-87
2023/01/04 05:59:23;;;;;;;12.53;8.60;;;4.70;99.90;6.20;98065.00;;;;5050638;28;20219;-87
2023/01/04 06:02:18;;;;;;;12.13;7.10;;;5.80;99.90;5.90;98056.00;;;;5047650;28;20292;-87
2023/01/04 06:05:09;;;;;;;10.20;7.57;;;4.70;99.90;5.70;98071.00;;;;5046173;28;20212;-89
2023/01/04 06:07:59;;;;;;;9.93;7.37;;;4.70;99.90;5.80;98077.00;;;;5049459;28;20228;-87
2023/01/04 06:10:53;;;;;;;12.23;9.27;;;4.60;99.90;6.10;98082.00;;;;5050315;28;20227;-87
2023/01/04 06:13:42;;;;;;;12.67;7.73;;;4.60;99.90;6.20;98078.00;;;;5031048;28;20201;-87
2023/01/04 06:16:31;;;;;;;12.70;9.07;;;6.00;99.90;6.20;98073.00;;;;5037223;28;20217;-87
2023/01/04 06:19:19;;;;;;;10.77;8.07;;;4.70;99.90;6.30;98088.00;;;;5050506;28;20227;-88
2023/01/04 06:22:09;;;;;;;9.97;8.80;;;4.70;99.90;6.20;98078.00;;;;5048954;28;20205;-88
2023/01/04 06:24:59;;;;;;;14.87;8.37;;;4.70;99.90;6.10;98076.00;;;;5050153;28;20204;-88
2023/01/04 06:27:48;;;;;;;15.23;7.93;;;4.70;99.90;6.10;98081.00;;;;5049144;28;20231;-88
2023/01/04 06:30:37;;;;;;;11.37;7.80;;;5.90;99.90;6.20;98076.00;;;;5045335;28;20189;-88
2023/01/04 06:33:26;;;;;;;11.23;8.30;;;4.80;99.90;6.10;98081.00;;;;5071722;28;20200;-88
2023/01/04 06:36:15;;;;;;;12.70;9.00;;;4.80;99.90;6.00;98076.00;;;;5041176;28;20220;-87
2023/01/04 06:39:05;;;;;;;14.80;9.20;;;4.70;99.90;6.20;98073.00;;;;5051445;28;20660;-88
2023/01/04 06:41:55;;;;;;;15.97;9.73;;;4.80;99.90;6.30;98060.00;;;;5041493;28;20201;-87
2023/01/04 06:44:46;;;;;;;11.40;8.70;;;4.80;99.90;6.40;98076.00;;;;5050404;28;20196;-87
2023/01/04 06:47:35;;;;;;;12.67;9.67;;;4.80;99.90;6.10;98072.00;;;;5051250;28;20213;-87
2023/01/04 06:50:25;;;;;;;12.33;8.50;;;5.00;99.90;6.00;98072.00;;;;5051527;28;20228;-87
2023/01/04 06:53:14;;;;;;;15.43;10.03;;;4.80;99.90;5.70;98067.00;;;;5051314;28;20192;-88
2023/01/04 06:56:03;;;;;;;12.80;9.60;;;4.70;99.90;5.70;98067.00;;;;5049751;28;20200;-87
2023/01/04 06:58:53;;;;;;;19.03;11.10;;;4.70;99.90;5.70;98061.00;;;;5050156;28;20193;-87
2023/01/04 07:01:42;;;;;;;12.57;11.00;;;4.60;99.90;5.80;98067.00;;;;5040939;28;20200;-88
2023/01/04 07:04:31;;;;;;;12.90;9.43;;;4.60;99.90;5.70;98070.00;;;;5048277;28;20280;-87
2023/01/04 07:07:20;;;;;;;13.17;8.27;;;4.60;99.90;5.80;98059.00;;;;5048851;28;20601;-87
2023/01/04 07:10:10;;;;;;;11.50;8.73;;;4.60;99.90;5.70;98069.00;;;;5044949;28;20205;-87
2023/01/04 07:12:59;;;;;;;17.67;9.50;;;4.60;99.90;5.70;98069.00;;;;5045891;28;20200;-87
2023/01/04 07:15:49;;;;;;;12.50;8.93;;;4.50;99.90;5.80;98062.00;;;;5042667;28;20200;-87
2023/01/04 07:18:38;;;;;;;14.97;9.90;;;5.00;99.90;6.00;98067.00;;;;5052423;28;20209;-87
2023/01/04 07:21:28;;;;;;;17.83;10.67;;;4.60;99.90;6.20;98068.00;;;;5053092;28;20586;-87
2023/01/04 07:24:17;;;;;;;13.87;8.73;;;4.60;99.90;6.30;98067.00;;;;5048104;28;20201;-87
2023/01/04 07:27:06;;;;;;;14.20;9.63;;;4.70;99.90;6.10;98060.00;;;;5048537;28;20228;-87
2023/01/04 07:29:55;;;;;;;17.10;11.03;;;4.70;99.90;6.30;98061.00;;;;5047744;28;20213;-87
2023/01/04 07:32:46;;;;;;;15.23;9.17;;;4.70;99.90;6.10;98057.00;;;;5051758;28;20196;-87
2023/01/04 07:35:37;;;;;;;12.57;9.73;;;4.80;99.90;6.20;98072.00;;;;5048448;28;20699;-87
2023/01/04 07:38:26;;;;;;;19.40;9.43;;;5.60;99.90;6.30;98062.00;;;;5051251;28;20196;-87
2023/01/04 07:41:15;;;;;;;16.60;10.93;;;4.80;99.90;6.30;98060.00;;;;5051714;28;20193;-88
2023/01/04 07:44:05;;;;;;;13.73;10.10;;;4.80;99.90;6.10;98062.00;;;;5045444;28;20204;-88
2023/01/04 07:46:54;;;;;;;14.10;8.60;;;4.80;99.90;5.90;98061.00;;;;5047848;28;20228;-88
2023/01/04 07:49:47;;;;;;;14.27;8.93;;;5.30;99.90;5.90;98065.00;;;;5049263;28;20221;-88
2023/01/04 07:52:36;;;;;;;11.53;7.70;;;4.80;99.90;6.20;98075.00;;;;5051381;28;20581;-88
2023/01/04 07:55:25;;;;;;;11.10;7.87;;;4.80;99.90;6.30;98070.00;;;;5049534;28;20203;-88
2023/01/04 07:58:14;;;;;;;13.33;9.87;;;4.80;99.90;6.30;98056.00;;;;5044051;28;20208;-89
2023/01/04 08:01:07;;;;;;;14.23;9.37;;;4.90;99.90;6.50;98064.00;;;;5050695;28;20684;-87
2023/01/04 08:03:56;;;;;;;17.03;9.37;;;4.90;99.90;6.60;98063.00;;;;5010378;28;1203189;-88
2023/01/04 08:06:46;;;;;;;16.47;10.77;;;5.00;99.90;6.60;98057.00;;;;5052402;28;20716;-87
2023/01/04 08:09:36;;;;;;;11.77;8.53;;;5.80;99.90;6.50;98058.00;;;;5040726;28;20714;-87
2023/01/04 08:12:25;;;;;;;16.30;8.67;;;5.00;99.90;6.80;98067.00;;;;5052413;28;20196;-88
2023/01/04 08:15:14;;;;;;;11.43;8.43;;;5.10;99.90;6.70;98073.00;;;;5051813;28;20212;-88
2023/01/04 08:18:03;;;;;;;14.10;8.90;;;5.20;99.90;6.60;98066.00;;;;5052384;28;20239;-88
2023/01/04 08:21:02;;;;;;;19.03;9.90;;;5.20;99.90;6.60;98081.00;;;;5040333;28;20215;-88
2023/01/04 08:23:53;;;;;;;17.17;8.97;;;5.20;99.90;6.70;98071.00;;;;5049309;28;20294;-88
2023/01/04 08:26:42;;;;;;;12.40;8.93;;;5.30;99.90;6.80;98064.00;;;;5047455;28;20216;-89
2023/01/04 08:29:31;;;;;;;14.97;10.30;;;5.30;99.90;6.80;98058.00;;;;5046245;28;20217;-88
2023/01/04 08:32:22;;;;;;;15.03;10.40;;;5.30;99.90;7.00;98044.00;;;;5050767;28;20318;-87
2023/01/04 08:35:11;;;;;;;14.13;9.97;;;5.40;99.90;7.20;98048.00;;;;5053086;28;20679;-87
2023/01/04 08:38:00;;;;;;;17.87;12.07;;;5.50;99.90;7.20;98036.00;;;;5049630;28;20688;-88
2023/01/04 08:41:02;;;;;;;16.20;9.87;;;5.60;99.90;7.30;98050.00;;;;5045074;28;20290;-87
2023/01/04 08:43:59;;;;;;;15.17;10.23;;;5.60;99.90;7.30;98036.00;;;;5049099;28;20215;-89
2023/01/04 08:46:49;;;;;;;11.37;9.07;;;5.70;99.90;7.40;98041.00;;;;5050508;28;20602;-87
2023/01/04 08:49:38;;;;;;;16.47;9.93;;;5.80;99.90;7.40;98043.00;;;;5049929;28;20294;-87
2023/01/04 08:52:27;;;;;;;13.63;11.17;;;5.80;99.90;7.40;98032.00;;;;5044866;28;20205;-88
2023/01/04 08:55:16;;;;;;;14.87;10.77;;;5.80;99.90;7.20;98028.00;;;;5039714;28;20201;-87
2023/01/04 08:58:09;;;;;;;16.43;10.47;;;5.90;99.90;7.10;98036.00;;;;5049174;28;20213;-88
2023/01/04 09:01:01;;;;;;;17.60;11.53;;;5.90;99.90;7.20;98039.00;;;;5051841;28;20707;-88
2023/01/04 09:03:50;;;;;;;16.83;10.07;;;5.90;99.90;7.60;98043.00;;;;5041080;28;20208;-87
2023/01/04 09:06:39;;;;;;;15.20;10.77;;;5.90;99.90;7.60;98038.00;;;;5043884;28;20228;-88
2023/01/04 09:09:29;;;;;;;14.03;10.23;;;6.00;99.90;7.60;98041.00;;;;5048151;28;20217;-87
2023/01/04 09:12:18;;;;;;;16.33;10.67;;;6.10;99.90;7.60;98043.00;;;;5049858;28;20201;-88
2023/01/04 09:15:10;;;;;;;14.20;9.87;;;6.10;99.90;7.90;98047.00;;;;5044705;28;20254;-87
2023/01/04 09:18:00;;;;;;;15.40;10.73;;;6.20;99.90;8.10;98043.00;;;;5049731;28;20699;-87
2023/01/04 09:21:10;;;;;;;13.23;8.70;;;6.30;99.90;8.20;98024.00;;;;5049492;28;20196;-87
2023/01/04 09:23:59;;;;;;;15.13;10.33;;;6.40;99.90;8.20;98026.00;;;;5047335;28;20204;-87
2023/01/04 09:26:48;;;;;;;16.37;11.53;;;6.50;99.90;8.40;98031.00;;;;5048222;28;20719;-87
2023/01/04 09:29:37;;;;;;;20.50;10.97;;;6.60;99.90;8.40;98027.00;;;;5049089;28;20216;-88
2023/01/04 09:32:27;;;;;;;14.03;10.57;;;6.60;99.90;8.40;98025.00;;;;5050106;28;20204;-87
2023/01/04 09:35:16;;;;;;;13.97;9.27;;;6.70;99.90;8.50;98028.00;;;;5050828;28;20698;-88
2023/01/04 09:38:05;;;;;;;14.77;9.10;;;6.70;99.90;8.60;98027.00;;;;5047317;28;20217;-87
2023/01/04 09:41:04;;;;;;;16.53;10.97;;;6.70;99.90;8.60;98021.00;;;;5045774;28;20325;-87
2023/01/04 09:43:55;;;;;;;13.83;9.90;;;6.80;99.90;8.70;98007.00;;;;5043800;28;20197;-88
2023/01/04 09:46:50;;;;;;;12.90;9.37;;;6.90;99.90;8.60;98000.00;;;;5049089;28;20243;-87
2023/01/04 09:49:45;;;;;;;13.60;8.37;;;6.90;99.90;8.70;97987.00;;;;5048740;28;20212;-89
2023/01/04 09:52:49;;;;;;;12.20;8.73;;;7.00;99.90;8.70;97987.00;;;;5049180;28;20213;-86
2023/01/04 09:55:44;;;;;;;12.67;9.23;;;7.00;99.90;8.80;97975.00;;;;5046470;28;20212;-87
2023/01/04 09:58:37;;;;;;;15.33;10.60;;;7.10;99.90;9.10;97984.00;;;;5046651;28;20586;-88
2023/01/04 10:01:31;;;;;;;16.13;10.67;;;7.20;99.90;9.10;97977.00;;;;5045147;28;20673;-87
2023/01/04 10:04:25;;;;;;;14.63;9.77;;;7.20;99.90;8.80;97978.00;;;;5047953;28;20688;-88
2023/01/04 10:07:23;;;;;;;15.97;10.10;;;7.30;99.90;8.70;97971.00;;;;5048291;28;20240;-88
2023/01/04 10:10:16;;;;;;;13.97;9.00;;;7.30;99.90;8.90;97976.00;;;;5044065;28;20623;-88
2023/01/04 10:13:16;;;;;;;14.57;10.57;;;7.40;99.90;9.20;97965.00;;;;5041442;28;20196;-88
2023/01/04 10:16:15;;;;;;;14.37;10.03;;;7.40;99.90;9.00;97963.00;;;;5046359;28;21887;-88
2023/01/04 10:19:19;;;;;;;13.20;8.80;;;7.50;99.90;9.30;97966.00;;;;5048699;28;20278;-87
2023/01/04 10:22:41;;;;;;;10.87;8.53;;;7.50;99.90;9.40;97961.00;;;;5046544;28;20223;-88
2023/01/04 10:25:39;;;;;;;14.47;8.83;;;7.60;99.90;9.30;97957.00;;;;5048462;28;20208;-88
2023/01/04 10:28:51;;;;;;;15.37;10.30;;;7.70;99.90;9.40;97949.00;;;;5050011;28;20193;-88
2023/01/04 10:31:46;;;;;;;13.47;8.80;;;7.70;99.90;9.40;97942.00;;;;5045890;28;20676;-88
2023/01/04 10:34:41;;;;;;;14.03;9.27;;;7.70;99.90;9.70;97929.00;;;;5046702;28;20691;-87
2023/01/04 10:37:35;;;;;;;12.97;8.83;;;7.80;99.90;9.60;97910.00;;;;5047245;28;20298;-87
2023/01/04 10:40:28;;;;;;;15.43;9.97;;;7.80;99.90;9.30;97900.00;;;;5043653;28;20228;-87
2023/01/04 10:43:29;;;;;;;12.90;9.27;;;7.90;99.90;9.40;97902.00;;;;5043819;28;20201;-86
2023/01/04 10:46:22;;;;;;;11.23;8.83;;;7.90;99.90;9.80;97901.00;;;;5046598;28;20704;-86
2023/01/04 10:49:17;;;;;;;10.43;7.47;;;8.00;99.90;10.00;97893.00;;;;5045240;28;20733;-87
2023/01/04 10:52:12;;;;;;;12.97;8.67;;;8.10;99.90;10.20;97887.00;;;;5047595;28;20199;-87
2023/01/04 10:55:07;;;;;;;11.17;8.40;;;8.20;99.90;10.20;97883.00;;;;5037387;28;20664;-86
2023/01/04 10:58:02;;;;;;;12.23;9.37;;;8.30;99.90;10.30;97888.00;;;;5048732;28;20227;-87
2023/01/04 11:00:56;;;;;;;15.47;9.37;;;8.40;99.90;10.00;97884.00;;;;5039144;28;20192;-87
2023/01/04 11:03:52;;;;;;;15.53;9.73;;;8.40;99.90;10.00;97885.00;;;;5044699;28;20684;-88
2023/01/04 11:06:46;;;;;;;12.57;8.53;;;8.40;99.90;10.00;97880.00;;;;5044959;28;20208;-87
2023/01/04 11:09:46;;;;;;;17.67;8.57;;;8.40;99.90;10.00;97885.00;;;;5041177;28;20216;-87
2023/01/04 11:12:36;;;;;;;14.30;9.30;;;8.40;99.90;10.00;97874.00;;;;5047651;28;20228;-88
2023/01/04 11:15:25;;;;;;;15.03;9.00;;;8.40;99.90;10.00;97869.00;;;;5043556;28;20232;-87
2023/01/04 11:18:16;;;;;;;10.43;8.10;;;8.50;99.90;10.30;97865.00;;;;5043997;28;20282;-87
2023/01/04 11:21:11;;;;;;;11.67;8.87;;;8.50;99.90;10.60;97874.00;;;;5038549;28;20216;-88
2023/01/04 11:24:08;;;;;;;10.20;8.10;;;8.60;99.90;10.80;97870.00;;;;5047686;28;20550;-87
2023/01/04 11:27:18;;;;;;;11.27;7.83;;;8.70;99.90;11.10;97862.00;;;;5044183;28;20221;-86
2023/01/04 11:30:18;;;;;;;10.37;7.00;;;8.90;99.90;11.30;97850.00;;;;5037479;28;20232;-87
2023/01/04 11:33:15;;;;;;;12.93;8.63;;;9.10;99.90;11.60;97846.00;;;;5041706;28;20197;-86
2023/01/04 11:36:05;;;;;;;9.87;6.90;;;9.30;99.90;12.00;97845.00;;;;5047409;28;20205;-86
2023/01/04 11:38:56;;;;;;;14.63;8.17;;;9.60;99.90;12.10;97845.00;;;;5048403;28;20254;-87
2023/01/04 11:41:56;;;;;;;9.97;7.73;;;9.90;99.90;11.80;97844.00;;;;5047314;28;20735;-87
2023/01/04 11:44:59;;;;;;;9.90;7.63;;;10.10;99.90;11.50;97824.00;;;;5039232;28;20231;-87
2023/01/04 11:47:54;;;;;;;13.33;7.40;;;10.30;99.90;12.40;97848.00;;;;5045138;28;20220;-87
2023/01/04 11:50:45;;;;;;;8.97;7.47;;;10.80;99.90;12.20;97830.00;;;;5045514;28;20227;-87
2023/01/04 11:53:37;;;;;;;10.00;7.27;;;11.00;99.90;13.00;97817.00;;;;5046033;28;20208;-87
2023/01/04 11:56:29;;;;;;;10.23;7.07;;;11.30;99.90;13.60;97808.00;;;;5047809;28;20715;-87
2023/01/04 11:59:20;;;;;;;9.77;7.40;;;11.80;99.90;13.40;97811.00;;;;5046332;28;20189;-87
2023/01/04 12:02:22;;;;;;;15.27;7.13;;;13.00;99.90;13.60;97789.00;;;;5048163;28;20679;-88
2023/01/04 12:05:32;;;;;;;9.53;7.27;;;13.10;99.90;14.00;97791.00;;;;5051810;28;20299;-87
2023/01/04 12:08:29;;;;;;;13.53;8.67;;;13.00;99.90;14.80;97780.00;;;;5038344;28;20205;-87
2023/01/04 12:11:26;;;;;;;13.80;9.23;;;13.60;99.90;15.30;97777.00;;;;5050576;28;20770;-88
2023/01/04 12:14:24;;;;;;;11.02;7.95;;;13.90;99.90;16.20;97772.00;;;;5040847;28;20402;-88
2023/01/04 12:17:21;;;;;;;12.60;7.50;;;14.50;99.90;16.60;97767.00;;;;5048060;28;20406;-88
2023/01/04 12:20:18;;;;;;;9.10;7.05;;;15.00;99.90;16.70;97767.00;;;;5045511;28;20786;-87
2023/01/04 12:23:10;;;;;;;9.80;7.10;;;15.40;99.90;16.40;97752.00;;;;5044901;28;20389;-88
2023/01/04 12:25:59;;;;;;;7.70;5.43;;;15.80;99.90;16.00;97756.00;;;;5043256;28;20404;-88
2023/01/04 12:28:52;;;;;;;5.38;4.32;;;15.80;99.90;16.20;97746.00;;;;5042711;28;20413;-86
2023/01/04 12:31:41;;;;;;;6.70;4.37;;;15.80;99.90;16.70;97740.00;;;;5045962;28;20484;-86
2023/01/04 12:34:42;;;;;;;7.73;4.13;;;15.90;99.90;17.20;97739.00;;;;5046376;28;20452;-85
2023/01/04 12:37:48;;;;;;;4.10;3.47;;;16.10;99.90;18.00;97737.00;;;;5044698;28;20219;-86
2023/01/04 12:40:55;;;;;;;5.60;4.03;;;16.40;99.90;18.00;97725.00;;;;5047217;28;20295;-87
2023/01/04 12:43:46;;;;;;;6.53;3.70;;;16.80;99.90;18.70;97725.00;;;;5051448;28;20228;-86
2023/01/04 12:49:59;;;;;;;9.47;5.00;;;17.20;99.10;18.40;97728.00;;;;5050533;28;20200;-86
2023/01/04 12:52:50;;;;;;;6.00;4.27;;;17.30;98.50;18.60;97728.00;;;;5049936;28;20589;-87
2023/01/04 12:56:00;;;;;;;7.70;4.53;;;17.40;97.50;18.80;97725.00;;;;5049962;28;20189;-87
2023/01/04 12:59:09;;;;;;;7.13;4.87;;;17.50;97.40;17.40;97715.00;;;;5045585;28;20215;-88
2023/01/04 13:02:21;;;;;;;8.10;4.23;;;17.50;96.60;16.80;97703.00;;;;5040889;28;20304;-87
2023/01/04 13:05:32;;;;;;;5.90;4.20;;;17.10;96.50;17.20;97695.00;;;;5047651;28;20200;-87
2023/01/04 13:08:44;;;;;;;4.47;3.57;;;16.90;96.60;16.60;97686.00;;;;5041661;28;20200;-86
2023/01/04 13:12:16;;;;;;;4.30;3.30;;;16.70;96.20;17.80;97684.00;;;;5049160;28;20205;-87
2023/01/04 13:15:10;;;;;;;6.17;3.83;;;16.80;96.70;18.30;97685.00;;;;5031227;28;20735;-89
2023/01/04 13:18:02;;;;;;;7.47;4.23;;;17.00;96.40;17.50;97681.00;;;;5051793;28;20217;-87
2023/01/04 13:20:51;;;;;;;4.43;2.77;;;17.30;95.20;17.30;97681.00;;;;5047398;28;20690;-87
2023/01/04 13:23:48;;;;;;;5.33;3.27;;;17.20;95.10;16.70;97681.00;;;;5045450;28;20201;-88
2023/01/04 13:26:39;;;;;;;3.50;3.20;;;16.70;95.30;15.00;97690.00;;;;5043235;28;20223;-87
2023/01/04 13:29:32;;;;;;;5.23;3.77;;;15.90;96.10;15.10;97663.00;;;;5047944;28;20200;-86
2023/01/04 13:32:24;;;;;;;5.27;3.37;;;15.20;97.10;14.70;97670.00;;;;5048907;28;20197;-85
2023/01/04 13:35:14;;;;;;;3.10;2.80;;;14.70;98.70;15.10;97661.00;;;;5048498;28;20547;-88
2023/01/04 13:38:04;;;;;;;36.40;26.53;;;14.50;99.40;14.90;97644.00;;;;5050490;28;20224;-86
2023/01/04 13:40:52;;;;;;;6.40;5.37;;;14.40;99.80;14.40;97662.00;;;;5050621;28;20204;-87
2023/01/04 13:43:56;;;;;;;3.20;2.77;;;14.10;99.90;15.10;97656.00;;;;5049083;28;20209;-87